sensor_id;sensor_type;location;lat;lon;timestamp;P1;durP1;ratioP1;P2;durP2;ratioP2
7432;SDS011;32233;49.500;7.764;2023-11-21T00:02:17;2.73;;;1.40;;
7432;SDS011;32233;49.500;7.764;2023-11-21T00:04:44;3.27;;;1.33;;
7432;SDS011;32233;49.500;7.764;2023-11-21T00:07:11;4.03;;;1.10;;
7432;SDS011;32233;49.500;7.764;2023-11-21T00:09:38;3.67;;;1.17;;
7432;SDS011;32233;49.500;7.764;2023-11-21T00:12:04;2.50;;;1.40;;
7432;SDS011;32233;49.500;7.764;2023-11-21T00:14:32;1.40;;;1.20;;
7432;SDS011;32233;49.500;7.764;2023-11-21T00:16:59;1.83;;;1.10;;
7432;SDS011;32233;49.500;7.764;2023-11-21T00:19:26;2.10;;;0.80;;
7432;SDS011;32233;49.500;7.764;2023-11-21T00:21:52;2.77;;;0.73;;
7432;SDS011;32233;49.500;7.764;2023-11-21T00:24:19;1.70;;;0.80;;
7432;SDS011;32233;49.500;7.764;2023-11-21T00:26:45;0.83;;;0.83;;
7432;SDS011;32233;49.500;7.764;2023-11-21T00:29:15;3.33;;;1.13;;
7432;SDS011;32233;49.500;7.764;2023-11-21T00:31:44;1.83;;;0.90;;
7432;SDS011;32233;49.500;7.764;2023-11-21T00:34:11;1.13;;;1.00;;
7432;SDS011;32233;49.500;7.764;2023-11-21T00:36:39;1.20;;;0.87;;
7432;SDS011;32233;49.500;7.764;2023-11-21T00:39:06;1.87;;;0.90;;
7432;SDS011;32233;49.500;7.764;2023-11-21T00:41:33;3.00;;;0.80;;
7432;SDS011;32233;49.500;7.764;2023-11-21T00:44:00;2.70;;;0.90;;
7432;SDS011;32233;49.500;7.764;2023-11-21T00:46:27;1.43;;;0.70;;
7432;SDS011;32233;49.500;7.764;2023-11-21T00:48:55;1.63;;;0.80;;
7432;SDS011;32233;49.500;7.764;2023-11-21T00:51:22;3.50;;;1.00;;
7432;SDS011;32233;49.500;7.764;2023-11-21T00:53:48;4.43;;;1.20;;
7432;SDS011;32233;49.500;7.764;2023-11-21T00:56:15;3.43;;;1.33;;
7432;SDS011;32233;49.500;7.764;2023-11-21T00:58:42;1.33;;;0.90;;
7432;SDS011;32233;49.500;7.764;2023-11-21T01:01:10;2.90;;;1.20;;
7432;SDS011;32233;49.500;7.764;2023-11-21T01:03:37;2.60;;;1.00;;
7432;SDS011;32233;49.500;7.764;2023-11-21T01:06:03;2.33;;;1.20;;
7432;SDS011;32233;49.500;7.764;2023-11-21T01:08:34;4.37;;;1.23;;
7432;SDS011;32233;49.500;7.764;2023-11-21T01:11:00;2.77;;;1.20;;
7432;SDS011;32233;49.500;7.764;2023-11-21T01:13:27;2.43;;;1.20;;
7432;SDS011;32233;49.500;7.764;2023-11-21T01:15:54;3.33;;;1.30;;
7432;SDS011;32233;49.500;7.764;2023-11-21T01:18:21;1.60;;;1.50;;
7432;SDS011;32233;49.500;7.764;2023-11-21T01:20:48;2.50;;;1.50;;
7432;SDS011;32233;49.500;7.764;2023-11-21T01:23:15;3.83;;;1.53;;
7432;SDS011;32233;49.500;7.764;2023-11-21T01:25:42;1.93;;;1.83;;
7432;SDS011;32233;49.500;7.764;2023-11-21T01:28:08;6.70;;;2.13;;
7432;SDS011;32233;49.500;7.764;2023-11-21T01:30:35;2.73;;;1.90;;
7432;SDS011;32233;49.500;7.764;2023-11-21T01:33:02;3.23;;;2.20;;
7432;SDS011;32233;49.500;7.764;2023-11-21T01:35:30;4.60;;;2.20;;
7432;SDS011;32233;49.500;7.764;2023-11-21T01:37:56;6.80;;;2.10;;
7432;SDS011;32233;49.500;7.764;2023-11-21T01:40:23;3.13;;;2.10;;
7432;SDS011;32233;49.500;7.764;2023-11-21T01:42:50;7.40;;;2.87;;
7432;SDS011;32233;49.500;7.764;2023-11-21T01:45:19;4.87;;;2.23;;
7432;SDS011;32233;49.500;7.764;2023-11-21T01:47:46;6.73;;;2.40;;
7432;SDS011;32233;49.500;7.764;2023-11-21T01:50:14;4.37;;;2.30;;
7432;SDS011;32233;49.500;7.764;2023-11-21T01:52:46;4.10;;;2.67;;
7432;SDS011;32233;49.500;7.764;2023-11-21T01:55:16;6.80;;;2.67;;
7432;SDS011;32233;49.500;7.764;2023-11-21T01:57:54;4.80;;;3.10;;
7432;SDS011;32233;49.500;7.764;2023-11-21T02:00:23;3.90;;;2.60;;
7432;SDS011;32233;49.500;7.764;2023-11-21T02:02:50;3.33;;;2.83;;
7432;SDS011;32233;49.500;7.764;2023-11-21T02:05:18;3.27;;;2.80;;
7432;SDS011;32233;49.500;7.764;2023-11-21T02:07:46;6.27;;;2.70;;
7432;SDS011;32233;49.500;7.764;2023-11-21T02:10:15;3.10;;;2.80;;
7432;SDS011;32233;49.500;7.764;2023-11-21T02:12:43;4.60;;;2.63;;
7432;SDS011;32233;49.500;7.764;2023-11-21T02:15:11;6.80;;;3.00;;
7432;SDS011;32233;49.500;7.764;2023-11-21T02:17:53;4.47;;;2.90;;
7432;SDS011;32233;49.500;7.764;2023-11-21T02:20:21;5.63;;;3.30;;
7432;SDS011;32233;49.500;7.764;2023-11-21T02:22:51;5.50;;;3.20;;
7432;SDS011;32233;49.500;7.764;2023-11-21T02:25:24;6.53;;;3.60;;
7432;SDS011;32233;49.500;7.764;2023-11-21T02:27:54;5.23;;;3.47;;
7432;SDS011;32233;49.500;7.764;2023-11-21T02:30:21;6.30;;;3.73;;
7432;SDS011;32233;49.500;7.764;2023-11-21T02:32:48;6.57;;;3.57;;
7432;SDS011;32233;49.500;7.764;2023-11-21T02:35:15;4.37;;;3.47;;
7432;SDS011;32233;49.500;7.764;2023-11-21T02:37:42;6.87;;;4.07;;
7432;SDS011;32233;49.500;7.764;2023-11-21T02:40:09;4.53;;;4.00;;
7432;SDS011;32233;49.500;7.764;2023-11-21T02:42:39;7.53;;;4.03;;
7432;SDS011;32233;49.500;7.764;2023-11-21T02:45:07;6.47;;;4.27;;
7432;SDS011;32233;49.500;7.764;2023-11-21T02:47:34;8.37;;;3.93;;
7432;SDS011;32233;49.500;7.764;2023-11-21T02:50:01;7.60;;;4.30;;
7432;SDS011;32233;49.500;7.764;2023-11-21T02:52:28;6.57;;;4.40;;
7432;SDS011;32233;49.500;7.764;2023-11-21T02:54:54;5.70;;;4.40;;
7432;SDS011;32233;49.500;7.764;2023-11-21T02:57:21;7.90;;;4.67;;
7432;SDS011;32233;49.500;7.764;2023-11-21T02:59:48;8.10;;;4.97;;
7432;SDS011;32233;49.500;7.764;2023-11-21T03:02:15;5.73;;;4.27;;
7432;SDS011;32233;49.500;7.764;2023-11-21T03:04:42;6.20;;;4.53;;
7432;SDS011;32233;49.500;7.764;2023-11-21T03:07:09;8.77;;;5.20;;
7432;SDS011;32233;49.500;7.764;2023-11-21T03:09:36;6.57;;;5.20;;
7432;SDS011;32233;49.500;7.764;2023-11-21T03:12:02;8.43;;;5.47;;
7432;SDS011;32233;49.500;7.764;2023-11-21T03:14:29;6.77;;;5.60;;
7432;SDS011;32233;49.500;7.764;2023-11-21T03:16:56;9.17;;;5.77;;
7432;SDS011;32233;49.500;7.764;2023-11-21T03:19:23;9.70;;;5.27;;
7432;SDS011;32233;49.500;7.764;2023-11-21T03:21:50;13.63;;;5.93;;
7432;SDS011;32233;49.500;7.764;2023-11-21T03:24:19;8.63;;;5.17;;
7432;SDS011;32233;49.500;7.764;2023-11-21T03:26:46;7.03;;;5.57;;
7432;SDS011;32233;49.500;7.764;2023-11-21T03:29:17;7.70;;;5.43;;
7432;SDS011;32233;49.500;7.764;2023-11-21T03:31:43;9.00;;;5.80;;
7432;SDS011;32233;49.500;7.764;2023-11-21T03:34:14;9.60;;;6.07;;
7432;SDS011;32233;49.500;7.764;2023-11-21T03:36:43;9.67;;;6.40;;
7432;SDS011;32233;49.500;7.764;2023-11-21T03:39:11;14.57;;;7.10;;
7432;SDS011;32233;49.500;7.764;2023-11-21T03:41:37;9.87;;;6.53;;
7432;SDS011;32233;49.500;7.764;2023-11-21T03:44:04;10.90;;;7.20;;
7432;SDS011;32233;49.500;7.764;2023-11-21T03:46:30;11.13;;;7.20;;
7432;SDS011;32233;49.500;7.764;2023-11-21T03:48:57;10.27;;;6.50;;
7432;SDS011;32233;49.500;7.764;2023-11-21T03:51:23;11.57;;;7.57;;
7432;SDS011;32233;49.500;7.764;2023-11-21T03:53:50;12.03;;;6.97;;
7432;SDS011;32233;49.500;7.764;2023-11-21T03:56:16;11.30;;;7.00;;
7432;SDS011;32233;49.500;7.764;2023-11-21T03:58:43;7.67;;;6.33;;
7432;SDS011;32233;49.500;7.764;2023-11-21T04:01:10;12.30;;;7.00;;
7432;SDS011;32233;49.500;7.764;2023-11-21T04:03:36;11.90;;;6.87;;
7432;SDS011;32233;49.500;7.764;2023-11-21T04:06:03;9.47;;;6.37;;
7432;SDS011;32233;49.500;7.764;2023-11-21T04:08:30;11.03;;;7.13;;
7432;SDS011;32233;49.500;7.764;2023-11-21T04:10:56;10.33;;;7.07;;
7432;SDS011;32233;49.500;7.764;2023-11-21T04:13:24;8.70;;;5.97;;
7432;SDS011;32233;49.500;7.764;2023-11-21T04:15:51;6.33;;;5.43;;
7432;SDS011;32233;49.500;7.764;2023-11-21T04:18:17;7.13;;;4.20;;
7432;SDS011;32233;49.500;7.764;2023-11-21T04:20:44;5.83;;;3.57;;
7432;SDS011;32233;49.500;7.764;2023-11-21T04:23:11;2.87;;;2.37;;
7432;SDS011;32233;49.500;7.764;2023-11-21T04:25:39;1.77;;;1.67;;
7432;SDS011;32233;49.500;7.764;2023-11-21T04:28:06;2.30;;;1.60;;
7432;SDS011;32233;49.500;7.764;2023-11-21T04:30:33;1.77;;;1.50;;
7432;SDS011;32233;49.500;7.764;2023-11-21T04:32:59;2.40;;;1.00;;
7432;SDS011;32233;49.500;7.764;2023-11-21T04:35:26;1.20;;;0.90;;
7432;SDS011;32233;49.500;7.764;2023-11-21T04:37:52;1.10;;;1.00;;
7432;SDS011;32233;49.500;7.764;2023-11-21T04:40:19;0.73;;;0.73;;
7432;SDS011;32233;49.500;7.764;2023-11-21T04:42:47;0.70;;;0.70;;
7432;SDS011;32233;49.500;7.764;2023-11-21T04:45:14;2.30;;;0.87;;
7432;SDS011;32233;49.500;7.764;2023-11-21T04:47:41;1.43;;;0.70;;
7432;SDS011;32233;49.500;7.764;2023-11-21T04:50:07;2.20;;;0.80;;
7432;SDS011;32233;49.500;7.764;2023-11-21T04:52:34;0.80;;;0.80;;
7432;SDS011;32233;49.500;7.764;2023-11-21T04:55:01;0.80;;;0.80;;
7432;SDS011;32233;49.500;7.764;2023-11-21T04:57:29;2.27;;;0.90;;
7432;SDS011;32233;49.500;7.764;2023-11-21T04:59:55;1.00;;;0.80;;
7432;SDS011;32233;49.500;7.764;2023-11-21T05:02:22;1.10;;;0.87;;
7432;SDS011;32233;49.500;7.764;2023-11-21T05:05:01;1.63;;;0.73;;
7432;SDS011;32233;49.500;7.764;2023-11-21T05:07:28;0.97;;;0.80;;
7432;SDS011;32233;49.500;7.764;2023-11-21T05:09:58;1.60;;;0.97;;
7432;SDS011;32233;49.500;7.764;2023-11-21T05:12:25;1.07;;;0.90;;
7432;SDS011;32233;49.500;7.764;2023-11-21T05:14:51;0.87;;;0.80;;
7432;SDS011;32233;49.500;7.764;2023-11-21T05:17:18;0.90;;;0.80;;
7432;SDS011;32233;49.500;7.764;2023-11-21T05:19:45;1.07;;;0.93;;
7432;SDS011;32233;49.500;7.764;2023-11-21T05:22:15;0.80;;;0.80;;
7432;SDS011;32233;49.500;7.764;2023-11-21T05:24:41;0.90;;;0.90;;
7432;SDS011;32233;49.500;7.764;2023-11-21T05:27:08;0.87;;;0.80;;
7432;SDS011;32233;49.500;7.764;2023-11-21T05:29:36;1.00;;;0.90;;
7432;SDS011;32233;49.500;7.764;2023-11-21T05:32:04;2.43;;;0.77;;
7432;SDS011;32233;49.500;7.764;2023-11-21T05:34:31;0.93;;;0.80;;
7432;SDS011;32233;49.500;7.764;2023-11-21T05:36:57;3.03;;;0.90;;
7432;SDS011;32233;49.500;7.764;2023-11-21T05:39:25;1.00;;;0.90;;
7432;SDS011;32233;49.500;7.764;2023-11-21T05:41:51;1.30;;;1.20;;
7432;SDS011;32233;49.500;7.764;2023-11-21T05:44:18;1.60;;;1.20;;
7432;SDS011;32233;49.500;7.764;2023-11-21T05:46:44;1.77;;;1.40;;
7432;SDS011;32233;49.500;7.764;2023-11-21T05:49:11;2.17;;;1.20;;
7432;SDS011;32233;49.500;7.764;2023-11-21T05:51:38;2.60;;;1.20;;
7432;SDS011;32233;49.500;7.764;2023-11-21T05:54:05;2.00;;;1.40;;
7432;SDS011;32233;49.500;7.764;2023-11-21T05:56:31;4.17;;;1.40;;
7432;SDS011;32233;49.500;7.764;2023-11-21T05:58:58;1.23;;;1.07;;
7432;SDS011;32233;49.500;7.764;2023-11-21T06:01:26;2.87;;;1.33;;
7432;SDS011;32233;49.500;7.764;2023-11-21T06:03:55;2.57;;;1.30;;
7432;SDS011;32233;49.500;7.764;2023-11-21T06:06:22;1.70;;;1.10;;
7432;SDS011;32233;49.500;7.764;2023-11-21T06:08:48;2.23;;;1.23;;
7432;SDS011;32233;49.500;7.764;2023-11-21T06:11:15;3.43;;;1.60;;
7432;SDS011;32233;49.500;7.764;2023-11-21T06:13:43;2.77;;;1.63;;
7432;SDS011;32233;49.500;7.764;2023-11-21T06:16:10;1.70;;;1.60;;
7432;SDS011;32233;49.500;7.764;2023-11-21T06:18:36;2.57;;;2.37;;
7432;SDS011;32233;49.500;7.764;2023-11-21T06:21:03;2.53;;;1.93;;
7432;SDS011;32233;49.500;7.764;2023-11-21T06:23:30;3.77;;;1.73;;
7432;SDS011;32233;49.500;7.764;2023-11-21T06:25:57;3.43;;;1.87;;
7432;SDS011;32233;49.500;7.764;2023-11-21T06:28:25;3.87;;;1.93;;
7432;SDS011;32233;49.500;7.764;2023-11-21T06:30:51;4.63;;;2.00;;
7432;SDS011;32233;49.500;7.764;2023-11-21T06:33:19;3.73;;;1.90;;
7432;SDS011;32233;49.500;7.764;2023-11-21T06:35:48;2.30;;;2.10;;
7432;SDS011;32233;49.500;7.764;2023-11-21T06:38:14;4.07;;;2.50;;
7432;SDS011;32233;49.500;7.764;2023-11-21T06:40:41;4.30;;;2.40;;
7432;SDS011;32233;49.500;7.764;2023-11-21T06:43:07;8.57;;;2.70;;
7432;SDS011;32233;49.500;7.764;2023-11-21T06:45:34;4.47;;;2.20;;
7432;SDS011;32233;49.500;7.764;2023-11-21T06:48:00;3.73;;;2.30;;
7432;SDS011;32233;49.500;7.764;2023-11-21T06:50:27;2.47;;;1.90;;
7432;SDS011;32233;49.500;7.764;2023-11-21T06:52:54;2.97;;;2.40;;
7432;SDS011;32233;49.500;7.764;2023-11-21T06:55:21;3.40;;;2.73;;
7432;SDS011;32233;49.500;7.764;2023-11-21T06:57:48;5.90;;;3.33;;
7432;SDS011;32233;49.500;7.764;2023-11-21T07:00:17;5.40;;;2.70;;
7432;SDS011;32233;49.500;7.764;2023-11-21T07:02:44;3.33;;;2.63;;
7432;SDS011;32233;49.500;7.764;2023-11-21T07:05:11;5.53;;;3.07;;
7432;SDS011;32233;49.500;7.764;2023-11-21T07:07:40;9.27;;;3.67;;
7432;SDS011;32233;49.500;7.764;2023-11-21T07:10:07;7.60;;;4.00;;
7432;SDS011;32233;49.500;7.764;2023-11-21T07:12:34;11.70;;;5.93;;
7432;SDS011;32233;49.500;7.764;2023-11-21T07:15:01;8.50;;;5.30;;
7432;SDS011;32233;49.500;7.764;2023-11-21T07:17:29;6.13;;;4.33;;
7432;SDS011;32233;49.500;7.764;2023-11-21T07:19:55;4.87;;;3.60;;
7432;SDS011;32233;49.500;7.764;2023-11-21T07:22:22;5.77;;;3.47;;
7432;SDS011;32233;49.500;7.764;2023-11-21T07:24:49;3.73;;;3.27;;
7432;SDS011;32233;49.500;7.764;2023-11-21T07:27:17;3.70;;;3.00;;
7432;SDS011;32233;49.500;7.764;2023-11-21T07:29:43;3.43;;;2.50;;
7432;SDS011;32233;49.500;7.764;2023-11-21T07:32:10;3.83;;;3.30;;
7432;SDS011;32233;49.500;7.764;2023-11-21T07:34:37;3.40;;;2.97;;
7432;SDS011;32233;49.500;7.764;2023-11-21T07:37:04;5.80;;;3.20;;
7432;SDS011;32233;49.500;7.764;2023-11-21T07:39:30;4.40;;;3.07;;
7432;SDS011;32233;49.500;7.764;2023-11-21T07:41:57;4.67;;;3.13;;
7432;SDS011;32233;49.500;7.764;2023-11-21T07:44:24;4.43;;;2.80;;
7432;SDS011;32233;49.500;7.764;2023-11-21T07:46:50;3.03;;;2.50;;
7432;SDS011;32233;49.500;7.764;2023-11-21T07:49:17;3.13;;;2.83;;
7432;SDS011;32233;49.500;7.764;2023-11-21T07:51:47;4.53;;;2.80;;
7432;SDS011;32233;49.500;7.764;2023-11-21T07:54:13;3.70;;;3.07;;
7432;SDS011;32233;49.500;7.764;2023-11-21T07:56:40;4.10;;;2.90;;
7432;SDS011;32233;49.500;7.764;2023-11-21T07:59:06;3.80;;;2.90;;
7432;SDS011;32233;49.500;7.764;2023-11-21T08:01:33;3.33;;;2.70;;
7432;SDS011;32233;49.500;7.764;2023-11-21T08:03:59;3.37;;;2.67;;
7432;SDS011;32233;49.500;7.764;2023-11-21T08:06:30;3.80;;;2.47;;
7432;SDS011;32233;49.500;7.764;2023-11-21T08:08:57;3.47;;;2.43;;
7432;SDS011;32233;49.500;7.764;2023-11-21T08:11:23;5.97;;;2.63;;
7432;SDS011;32233;49.500;7.764;2023-11-21T08:13:50;2.97;;;2.30;;
7432;SDS011;32233;49.500;7.764;2023-11-21T08:16:17;2.70;;;2.30;;
7432;SDS011;32233;49.500;7.764;2023-11-21T08:18:43;2.60;;;2.40;;
7432;SDS011;32233;49.500;7.764;2023-11-21T08:21:12;5.13;;;1.90;;
7432;SDS011;32233;49.500;7.764;2023-11-21T08:23:39;1.73;;;1.63;;
7432;SDS011;32233;49.500;7.764;2023-11-21T08:26:09;1.80;;;1.63;;
7432;SDS011;32233;49.500;7.764;2023-11-21T08:28:36;1.93;;;1.73;;
7432;SDS011;32233;49.500;7.764;2023-11-21T08:31:02;8.53;;;2.20;;
7432;SDS011;32233;49.500;7.764;2023-11-21T08:33:30;1.63;;;1.53;;
7432;SDS011;32233;49.500;7.764;2023-11-21T08:35:57;3.00;;;2.03;;
7432;SDS011;32233;49.500;7.764;2023-11-21T08:38:23;2.10;;;2.00;;
7432;SDS011;32233;49.500;7.764;2023-11-21T08:40:50;2.80;;;2.00;;
7432;SDS011;32233;49.500;7.764;2023-11-21T08:43:17;2.27;;;1.50;;
7432;SDS011;32233;49.500;7.764;2023-11-21T08:45:46;2.50;;;2.17;;
7432;SDS011;32233;49.500;7.764;2023-11-21T08:48:13;5.93;;;1.90;;
7432;SDS011;32233;49.500;7.764;2023-11-21T08:50:39;1.90;;;1.70;;
7432;SDS011;32233;49.500;7.764;2023-11-21T08:53:06;1.70;;;1.60;;
7432;SDS011;32233;49.500;7.764;2023-11-21T08:55:35;1.70;;;1.60;;
7432;SDS011;32233;49.500;7.764;2023-11-21T08:58:07;2.60;;;1.50;;
7432;SDS011;32233;49.500;7.764;2023-11-21T09:00:34;2.00;;;1.63;;
7432;SDS011;32233;49.500;7.764;2023-11-21T09:03:01;1.57;;;1.47;;
7432;SDS011;32233;49.500;7.764;2023-11-21T09:05:29;1.87;;;1.67;;
7432;SDS011;32233;49.500;7.764;2023-11-21T09:07:56;6.90;;;5.40;;
7432;SDS011;32233;49.500;7.764;2023-11-21T09:10:23;6.80;;;6.20;;
7432;SDS011;32233;49.500;7.764;2023-11-21T09:12:51;9.30;;;7.90;;
7432;SDS011;32233;49.500;7.764;2023-11-21T09:15:18;11.80;;;8.97;;
7432;SDS011;32233;49.500;7.764;2023-11-21T09:17:47;157.60;;;85.13;;
7432;SDS011;32233;49.500;7.764;2023-11-21T09:20:13;365.67;;;216.50;;
7432;SDS011;32233;49.500;7.764;2023-11-21T09:22:41;163.10;;;97.63;;
7432;SDS011;32233;49.500;7.764;2023-11-21T09:25:08;39.63;;;27.10;;
7432;SDS011;32233;49.500;7.764;2023-11-21T09:27:35;22.07;;;14.57;;
7432;SDS011;32233;49.500;7.764;2023-11-21T09:30:04;19.27;;;12.80;;
7432;SDS011;32233;49.500;7.764;2023-11-21T09:32:32;8.30;;;4.33;;
7432;SDS011;32233;49.500;7.764;2023-11-21T09:34:58;2.20;;;2.00;;
7432;SDS011;32233;49.500;7.764;2023-11-21T09:37:26;7.03;;;5.73;;
7432;SDS011;32233;49.500;7.764;2023-11-21T09:39:53;2.03;;;1.70;;
7432;SDS011;32233;49.500;7.764;2023-11-21T09:42:32;3.20;;;1.77;;
7432;SDS011;32233;49.500;7.764;2023-11-21T09:45:18;1.70;;;1.30;;
7432;SDS011;32233;49.500;7.764;2023-11-21T09:47:53;4.57;;;1.40;;
7432;SDS011;32233;49.500;7.764;2023-11-21T09:50:24;1.57;;;1.20;;
7432;SDS011;32233;49.500;7.764;2023-11-21T09:53:08;3.27;;;1.20;;
7432;SDS011;32233;49.500;7.764;2023-11-21T09:55:49;1.87;;;1.10;;
7432;SDS011;32233;49.500;7.764;2023-11-21T09:58:17;1.70;;;1.10;;
7432;SDS011;32233;49.500;7.764;2023-11-21T10:00:46;2.27;;;1.13;;
7432;SDS011;32233;49.500;7.764;2023-11-21T10:03:14;1.20;;;1.10;;
7432;SDS011;32233;49.500;7.764;2023-11-21T10:05:41;2.00;;;1.20;;
7432;SDS011;32233;49.500;7.764;2023-11-21T10:08:09;2.53;;;1.10;;
7432;SDS011;32233;49.500;7.764;2023-11-21T10:10:37;2.80;;;1.10;;
7432;SDS011;32233;49.500;7.764;2023-11-21T10:13:06;1.40;;;1.30;;
7432;SDS011;32233;49.500;7.764;2023-11-21T10:15:34;1.63;;;1.30;;
7432;SDS011;32233;49.500;7.764;2023-11-21T10:18:04;2.20;;;1.10;;
7432;SDS011;32233;49.500;7.764;2023-11-21T10:20:33;2.63;;;1.30;;
7432;SDS011;32233;49.500;7.764;2023-11-21T10:23:00;2.87;;;1.40;;
7432;SDS011;32233;49.500;7.764;2023-11-21T10:25:38;2.43;;;1.30;;
7432;SDS011;32233;49.500;7.764;2023-11-21T10:28:05;2.53;;;1.20;;
7432;SDS011;32233;49.500;7.764;2023-11-21T10:30:35;3.67;;;2.07;;
7432;SDS011;32233;49.500;7.764;2023-11-21T10:33:04;2.27;;;1.73;;
7432;SDS011;32233;49.500;7.764;2023-11-21T10:35:47;2.87;;;1.27;;
7432;SDS011;32233;49.500;7.764;2023-11-21T10:38:19;2.67;;;1.30;;
7432;SDS011;32233;49.500;7.764;2023-11-21T10:40:51;3.47;;;1.50;;
7432;SDS011;32233;49.500;7.764;2023-11-21T10:43:18;2.17;;;1.50;;
7432;SDS011;32233;49.500;7.764;2023-11-21T10:45:45;4.00;;;1.40;;
7432;SDS011;32233;49.500;7.764;2023-11-21T10:48:15;3.30;;;1.60;;
7432;SDS011;32233;49.500;7.764;2023-11-21T10:50:45;2.57;;;1.40;;
7432;SDS011;32233;49.500;7.764;2023-11-21T10:53:13;3.47;;;1.50;;
7432;SDS011;32233;49.500;7.764;2023-11-21T10:55:40;2.33;;;1.80;;
7432;SDS011;32233;49.500;7.764;2023-11-21T10:58:07;3.53;;;1.97;;
7432;SDS011;32233;49.500;7.764;2023-11-21T11:00:37;2.57;;;1.50;;
7432;SDS011;32233;49.500;7.764;2023-11-21T11:03:06;4.27;;;2.57;;
7432;SDS011;32233;49.500;7.764;2023-11-21T11:05:39;1.77;;;1.60;;
7432;SDS011;32233;49.500;7.764;2023-11-21T11:08:12;3.50;;;1.70;;
7432;SDS011;32233;49.500;7.764;2023-11-21T11:10:45;2.20;;;2.00;;
7432;SDS011;32233;49.500;7.764;2023-11-21T11:13:15;3.87;;;2.20;;
7432;SDS011;32233;49.500;7.764;2023-11-21T11:15:42;3.77;;;1.60;;
7432;SDS011;32233;49.500;7.764;2023-11-21T11:18:13;5.03;;;2.47;;
7432;SDS011;32233;49.500;7.764;2023-11-21T11:20:40;5.93;;;1.70;;
7432;SDS011;32233;49.500;7.764;2023-11-21T11:26:20;2.40;;;1.40;;
7432;SDS011;32233;49.500;7.764;2023-11-21T11:29:54;5.37;;;2.40;;
7432;SDS011;32233;49.500;7.764;2023-11-21T11:37:59;2.73;;;2.10;;
7432;SDS011;32233;49.500;7.764;2023-11-21T11:40:39;2.23;;;1.50;;
7432;SDS011;32233;49.500;7.764;2023-11-21T11:43:07;2.93;;;1.40;;
7432;SDS011;32233;49.500;7.764;2023-11-21T11:45:34;3.40;;;1.40;;
7432;SDS011;32233;49.500;7.764;2023-11-21T11:48:01;1.60;;;1.50;;
7432;SDS011;32233;49.500;7.764;2023-11-21T11:50:30;2.20;;;1.30;;
7432;SDS011;32233;49.500;7.764;2023-11-21T11:53:11;2.47;;;1.60;;
7432;SDS011;32233;49.500;7.764;2023-11-21T11:55:39;6.03;;;1.93;;
7432;SDS011;32233;49.500;7.764;2023-11-21T11:58:06;3.17;;;1.47;;
7432;SDS011;32233;49.500;7.764;2023-11-21T12:00:34;6.60;;;1.70;;
7432;SDS011;32233;49.500;7.764;2023-11-21T12:03:07;5.00;;;3.20;;
7432;SDS011;32233;49.500;7.764;2023-11-21T12:05:35;3.83;;;2.53;;
7432;SDS011;32233;49.500;7.764;2023-11-21T12:08:05;2.70;;;2.00;;
7432;SDS011;32233;49.500;7.764;2023-11-21T12:10:37;3.07;;;1.93;;
7432;SDS011;32233;49.500;7.764;2023-11-21T12:13:06;2.73;;;1.37;;
7432;SDS011;32233;49.500;7.764;2023-11-21T12:15:34;3.90;;;1.70;;
7432;SDS011;32233;49.500;7.764;2023-11-21T12:18:03;5.07;;;2.30;;
7432;SDS011;32233;49.500;7.764;2023-11-21T12:20:30;3.70;;;1.40;;
7432;SDS011;32233;49.500;7.764;2023-11-21T12:22:58;2.80;;;1.20;;
7432;SDS011;32233;49.500;7.764;2023-11-21T12:25:27;1.53;;;1.37;;
7432;SDS011;32233;49.500;7.764;2023-11-21T12:27:55;2.20;;;1.47;;
7432;SDS011;32233;49.500;7.764;2023-11-21T12:30:27;2.17;;;1.57;;
7432;SDS011;32233;49.500;7.764;2023-11-21T12:32:57;4.07;;;1.70;;
7432;SDS011;32233;49.500;7.764;2023-11-21T12:35:26;3.10;;;1.57;;
7432;SDS011;32233;49.500;7.764;2023-11-21T12:37:57;3.20;;;1.30;;
7432;SDS011;32233;49.500;7.764;2023-11-21T12:40:24;1.97;;;1.23;;
7432;SDS011;32233;49.500;7.764;2023-11-21T12:42:52;4.03;;;1.27;;
7432;SDS011;32233;49.500;7.764;2023-11-21T12:45:27;2.03;;;1.57;;
7432;SDS011;32233;49.500;7.764;2023-11-21T12:47:56;2.47;;;1.70;;
7432;SDS011;32233;49.500;7.764;2023-11-21T12:50:27;2.47;;;1.40;;
7432;SDS011;32233;49.500;7.764;2023-11-21T12:53:00;2.53;;;1.43;;
7432;SDS011;32233;49.500;7.764;2023-11-21T12:55:30;4.23;;;1.53;;
7432;SDS011;32233;49.500;7.764;2023-11-21T12:58:05;3.87;;;1.43;;
7432;SDS011;32233;49.500;7.764;2023-11-21T13:00:47;2.87;;;1.70;;
7432;SDS011;32233;49.500;7.764;2023-11-21T13:03:15;1.57;;;1.43;;
7432;SDS011;32233;49.500;7.764;2023-11-21T13:05:46;3.57;;;1.50;;
7432;SDS011;32233;49.500;7.764;2023-11-21T13:08:19;3.50;;;1.70;;
7432;SDS011;32233;49.500;7.764;2023-11-21T13:10:52;4.07;;;1.67;;
7432;SDS011;32233;49.500;7.764;2023-11-21T13:13:22;4.07;;;1.90;;
7432;SDS011;32233;49.500;7.764;2023-11-21T13:15:51;2.47;;;2.10;;
7432;SDS011;32233;49.500;7.764;2023-11-21T13:18:23;3.23;;;1.40;;
7432;SDS011;32233;49.500;7.764;2023-11-21T13:20:56;4.10;;;1.70;;
7432;SDS011;32233;49.500;7.764;2023-11-21T13:23:24;3.87;;;1.33;;
7432;SDS011;32233;49.500;7.764;2023-11-21T13:25:52;2.60;;;1.37;;
7432;SDS011;32233;49.500;7.764;2023-11-21T13:28:30;2.20;;;1.47;;
7432;SDS011;32233;49.500;7.764;2023-11-21T13:31:02;2.70;;;1.30;;
7432;SDS011;32233;49.500;7.764;2023-11-21T13:33:36;2.63;;;1.40;;
7432;SDS011;32233;49.500;7.764;2023-11-21T13:36:09;4.63;;;1.60;;
7432;SDS011;32233;49.500;7.764;2023-11-21T13:38:37;3.87;;;2.00;;
7432;SDS011;32233;49.500;7.764;2023-11-21T13:41:09;4.33;;;1.60;;
7432;SDS011;32233;49.500;7.764;2023-11-21T13:43:36;4.03;;;1.50;;
7432;SDS011;32233;49.500;7.764;2023-11-21T13:46:03;3.67;;;1.60;;
7432;SDS011;32233;49.500;7.764;2023-11-21T13:48:40;2.40;;;1.70;;
7432;SDS011;32233;49.500;7.764;2023-11-21T13:51:17;4.70;;;1.80;;
7432;SDS011;32233;49.500;7.764;2023-11-21T13:53:44;2.87;;;1.90;;
7432;SDS011;32233;49.500;7.764;2023-11-21T13:56:14;2.53;;;1.63;;
7432;SDS011;32233;49.500;7.764;2023-11-21T13:58:45;4.00;;;2.23;;
7432;SDS011;32233;49.500;7.764;2023-11-21T14:01:19;2.20;;;1.90;;
7432;SDS011;32233;49.500;7.764;2023-11-21T14:03:56;3.93;;;1.80;;
7432;SDS011;32233;49.500;7.764;2023-11-21T14:06:35;5.20;;;2.20;;
7432;SDS011;32233;49.500;7.764;2023-11-21T14:09:16;4.57;;;1.97;;
7432;SDS011;32233;49.500;7.764;2023-11-21T14:11:49;2.50;;;2.17;;
7432;SDS011;32233;49.500;7.764;2023-11-21T14:14:20;3.60;;;2.13;;
7432;SDS011;32233;49.500;7.764;2023-11-21T14:16:48;6.47;;;2.43;;
7432;SDS011;32233;49.500;7.764;2023-11-21T14:19:15;3.20;;;2.53;;
7432;SDS011;32233;49.500;7.764;2023-11-21T14:21:42;5.57;;;3.10;;
7432;SDS011;32233;49.500;7.764;2023-11-21T14:24:10;5.20;;;2.97;;
7432;SDS011;32233;49.500;7.764;2023-11-21T14:26:40;4.33;;;3.23;;
7432;SDS011;32233;49.500;7.764;2023-11-21T14:29:08;4.10;;;2.90;;
7432;SDS011;32233;49.500;7.764;2023-11-21T14:31:38;5.20;;;2.80;;
7432;SDS011;32233;49.500;7.764;2023-11-21T14:34:06;4.87;;;3.27;;
7432;SDS011;32233;49.500;7.764;2023-11-21T14:36:33;5.70;;;3.60;;
7432;SDS011;32233;49.500;7.764;2023-11-21T14:39:00;6.20;;;3.50;;
7432;SDS011;32233;49.500;7.764;2023-11-21T14:41:27;5.67;;;4.13;;
7432;SDS011;32233;49.500;7.764;2023-11-21T14:43:55;5.37;;;3.80;;
7432;SDS011;32233;49.500;7.764;2023-11-21T14:46:23;8.03;;;4.20;;
7432;SDS011;32233;49.500;7.764;2023-11-21T14:48:50;4.10;;;3.67;;
7432;SDS011;32233;49.500;7.764;2023-11-21T14:51:33;8.77;;;3.80;;
7432;SDS011;32233;49.500;7.764;2023-11-21T14:54:19;6.50;;;3.50;;
7432;SDS011;32233;49.500;7.764;2023-11-21T14:57:01;7.13;;;4.07;;
7432;SDS011;32233;49.500;7.764;2023-11-21T14:59:28;6.60;;;4.73;;
7432;SDS011;32233;49.500;7.764;2023-11-21T15:01:54;8.77;;;4.67;;
7432;SDS011;32233;49.500;7.764;2023-11-21T15:04:24;8.00;;;4.70;;
7432;SDS011;32233;49.500;7.764;2023-11-21T15:07:05;10.37;;;6.17;;
7432;SDS011;32233;49.500;7.764;2023-11-21T15:09:32;10.37;;;5.40;;
7432;SDS011;32233;49.500;7.764;2023-11-21T15:11:59;8.17;;;5.07;;
7432;SDS011;32233;49.500;7.764;2023-11-21T15:14:43;9.00;;;4.70;;
7432;SDS011;32233;49.500;7.764;2023-11-21T15:17:12;7.70;;;5.30;;
7432;SDS011;32233;49.500;7.764;2023-11-21T15:19:45;7.30;;;4.60;;